createdAt,value
2023-04-22T00:00:15.829Z,3.59
2023-04-22T00:02:43.882Z,3.69
2023-04-22T00:05:15.922Z,3.74
2023-04-22T00:07:45.287Z,2.86
2023-04-22T00:10:12.118Z,3.73
2023-04-22T00:12:39.042Z,2.01
2023-04-22T00:15:06.917Z,1.58
2023-04-22T00:17:33.865Z,2.79
2023-04-22T00:20:01.578Z,4.02
2023-04-22T00:22:28.353Z,4.37
2023-04-22T00:24:55.164Z,3.22
2023-04-22T00:27:21.967Z,4.60
2023-04-22T00:29:48.938Z,4.78
2023-04-22T00:32:15.707Z,4.50
2023-04-22T00:34:42.424Z,4.64
2023-04-22T00:37:09.276Z,1.80
2023-04-22T00:39:39.403Z,1.83
2023-04-22T00:42:07.800Z,3.18
2023-04-22T00:44:36.899Z,3.58
2023-04-22T00:47:04.465Z,4.61
2023-04-22T00:49:31.548Z,4.79
2023-04-22T00:51:58.351Z,4.65
2023-04-22T00:54:25.282Z,4.84
2023-04-22T00:56:52.213Z,4.00
2023-04-22T00:59:19.202Z,3.67
2023-04-22T01:01:46.906Z,3.62
2023-04-22T01:04:15.093Z,3.70
2023-04-22T01:06:44.391Z,3.17
2023-04-22T01:09:11.389Z,2.52
2023-04-22T01:11:38.438Z,2.71
2023-04-22T01:14:06.261Z,1.21
2023-04-22T01:16:35.945Z,-0.58
2023-04-22T01:19:02.994Z,0.02
2023-04-22T01:21:33.742Z,0.67
2023-04-22T01:24:01.830Z,3.25
2023-04-22T01:26:28.843Z,3.23
2023-04-22T01:28:56.159Z,3.90
2023-04-22T01:31:22.964Z,3.97
2023-04-22T01:33:51.017Z,3.95
2023-04-22T01:36:18.044Z,1.77
2023-04-22T01:38:45.365Z,1.92
2023-04-22T01:41:13.836Z,0.94
2023-04-22T01:43:41.229Z,1.62
2023-04-22T01:46:09.056Z,2.01
2023-04-22T01:48:37.015Z,1.98
2023-04-22T01:51:04.789Z,-0.28
2023-04-22T01:53:31.632Z,-0.99
2023-04-22T01:55:59.927Z,2.41
2023-04-22T01:58:29.792Z,1.49
2023-04-22T02:00:57.653Z,1.10
2023-04-22T02:03:24.557Z,2.21
2023-04-22T02:05:51.382Z,2.55
2023-04-22T02:08:18.525Z,0.33
2023-04-22T02:10:45.452Z,0.08
2023-04-22T02:13:12.904Z,0.59
2023-04-22T02:15:41.250Z,0.14
2023-04-22T02:18:08.355Z,2.26
2023-04-22T02:20:35.118Z,1.82
2023-04-22T02:23:02.782Z,0.77
2023-04-22T02:25:29.980Z,1.98
2023-04-22T02:27:56.723Z,2.18
2023-04-22T02:30:24.258Z,2.73
2023-04-22T02:32:51.699Z,3.46
2023-04-22T02:35:19.118Z,2.27
2023-04-22T02:37:45.891Z,1.51
2023-04-22T02:40:13.005Z,1.51
2023-04-22T02:42:39.745Z,0.98
2023-04-22T02:45:07.125Z,1.04
2023-04-22T02:47:33.910Z,0.42
2023-04-22T02:50:01.096Z,2.30
2023-04-22T02:52:28.239Z,1.12
2023-04-22T02:54:54.953Z,2.47
2023-04-22T02:57:22.311Z,2.18
2023-04-22T02:59:49.024Z,2.73
2023-04-22T03:02:18.407Z,3.17
2023-04-22T03:04:58.953Z,1.37
2023-04-22T03:07:25.974Z,0.16
2023-04-22T03:09:53.623Z,0.53
2023-04-22T03:12:20.705Z,1.09
2023-04-22T03:14:47.638Z,-0.16
2023-04-22T03:17:14.648Z,1.61
2023-04-22T03:19:42.200Z,2.83
2023-04-22T03:22:09.343Z,1.23
2023-04-22T03:24:36.951Z,2.95
2023-04-22T03:27:07.046Z,2.67
2023-04-22T03:29:34.035Z,2.23
2023-04-22T03:32:01.245Z,1.47
2023-04-22T03:34:28.166Z,0.20
2023-04-22T03:36:54.975Z,1.27
2023-04-22T03:39:22.202Z,0.83
2023-04-22T03:41:49.236Z,0.15
2023-04-22T03:44:16.451Z,2.03
2023-04-22T03:46:44.201Z,0.89
2023-04-22T03:49:18.191Z,-0.22
2023-04-22T03:51:44.979Z,-0.88
2023-04-22T03:54:16.552Z,-0.81
2023-04-22T03:56:51.291Z,1.48
2023-04-22T03:59:21.219Z,0.59
2023-04-22T04:01:52.790Z,-0.22
2023-04-22T04:04:23.991Z,-0.39
2023-04-22T04:07:01.422Z,0.67
2023-04-22T04:09:28.981Z,1.12
2023-04-22T04:11:56.777Z,0.39
2023-04-22T04:14:23.975Z,-0.37
2023-04-22T04:16:52.600Z,0.86
2023-04-22T04:19:27.695Z,2.23
2023-04-22T04:21:54.487Z,1.43
2023-04-22T04:24:23.155Z,1.15
2023-04-22T04:26:53.705Z,1.79
2023-04-22T04:29:27.380Z,0.28
2023-04-22T04:32:04.873Z,0.47
2023-04-22T04:34:37.878Z,1.14
2023-04-22T04:37:06.707Z,0.97
2023-04-22T04:39:43.589Z,-0.30
2023-04-22T04:42:12.316Z,1.91
2023-04-22T04:44:51.470Z,1.80
2023-04-22T04:47:20.308Z,0.90
2023-04-22T04:49:47.586Z,0.27
2023-04-22T04:52:14.541Z,-0.50
2023-04-22T04:54:41.558Z,-0.05
2023-04-22T04:57:10.136Z,0.50
2023-04-22T04:59:38.306Z,0.35
2023-04-22T05:02:06.534Z,1.22
2023-04-22T05:04:34.591Z,2.32
2023-04-22T05:07:01.841Z,2.09
2023-04-22T05:09:30.032Z,3.30
2023-04-22T05:11:57.179Z,2.21
2023-04-22T05:14:25.655Z,2.86
2023-04-22T05:16:53.273Z,3.55
2023-04-22T05:19:20.631Z,2.46
2023-04-22T05:21:48.358Z,1.01
2023-04-22T05:24:16.913Z,2.10
2023-04-22T05:26:44.166Z,3.86
2023-04-22T05:29:15.888Z,2.70
2023-04-22T05:31:42.766Z,4.29
2023-04-22T05:34:09.864Z,4.54
2023-04-22T05:36:37.480Z,2.76
2023-04-22T05:39:04.911Z,4.48
2023-04-22T05:41:32.971Z,5.20
2023-04-22T05:44:00.588Z,6.24
2023-04-22T05:46:29.454Z,6.74
2023-04-22T05:48:56.849Z,3.80
2023-04-22T05:51:43.820Z,6.41
2023-04-22T05:54:13.693Z,5.82
2023-04-22T05:56:40.589Z,7.09
2023-04-22T05:59:07.511Z,7.84
2023-04-22T06:01:35.686Z,7.64
2023-04-22T06:04:07.513Z,4.73
2023-04-22T06:06:34.478Z,5.69
2023-04-22T06:09:01.444Z,6.14
2023-04-22T06:11:29.016Z,6.59
2023-04-22T06:13:55.956Z,6.72
2023-04-22T06:16:23.830Z,7.27
2023-04-22T06:18:50.857Z,6.84
2023-04-22T06:21:17.889Z,8.50
2023-04-22T06:23:44.599Z,8.64
2023-04-22T06:26:11.618Z,7.87
2023-04-22T06:28:39.994Z,9.29
2023-04-22T06:31:11.605Z,8.40
2023-04-22T06:33:39.147Z,10.10
2023-04-22T06:36:06.528Z,10.13
2023-04-22T06:38:34.853Z,10.61
2023-04-22T06:41:27.872Z,9.46
2023-04-22T06:43:59.566Z,8.94
2023-04-22T06:47:01.420Z,10.37
2023-04-22T06:49:57.425Z,11.28
2023-04-22T06:52:40.741Z,11.88
2023-04-22T06:55:08.003Z,11.55
2023-04-22T06:57:34.865Z,12.48
2023-04-22T07:00:01.949Z,12.44
2023-04-22T07:02:30.161Z,10.65
2023-04-22T07:04:56.889Z,11.57
2023-04-22T07:07:25.370Z,12.50
2023-04-22T07:09:53.060Z,11.66
2023-04-22T07:12:19.878Z,13.29
2023-04-22T07:14:49.899Z,11.86
2023-04-22T07:17:19.462Z,11.35
2023-04-22T07:19:46.297Z,12.61
2023-04-22T07:22:13.131Z,13.93
2023-04-22T07:24:41.046Z,11.57
2023-04-22T07:27:08.163Z,12.76
2023-04-22T07:29:35.136Z,14.23
2023-04-22T07:32:02.298Z,14.05
2023-04-22T07:34:29.055Z,14.28
2023-04-22T07:36:56.175Z,14.25
2023-04-22T07:39:23.313Z,14.60
2023-04-22T07:41:50.895Z,13.38
2023-04-22T07:44:21.819Z,14.12
2023-04-22T07:46:50.271Z,15.52
2023-04-22T07:49:17.451Z,14.31
2023-04-22T07:51:45.027Z,14.47
2023-04-22T07:54:12.139Z,14.98
2023-04-22T07:56:39.757Z,13.85
2023-04-22T07:59:07.080Z,14.27
2023-04-22T08:01:33.850Z,14.35
2023-04-22T08:04:00.662Z,13.02
2023-04-22T08:06:28.202Z,14.25
2023-04-22T08:08:55.152Z,15.43
2023-04-22T08:11:22.104Z,17.63
2023-04-22T08:13:48.996Z,14.61
2023-04-22T08:16:15.863Z,15.41
2023-04-22T08:18:42.643Z,15.76
2023-04-22T08:21:10.295Z,17.34
2023-04-22T08:23:37.169Z,16.73
2023-04-22T08:26:04.288Z,17.54
2023-04-22T08:28:31.095Z,16.39
2023-04-22T08:30:57.876Z,15.12
2023-04-22T08:33:27.160Z,17.81
2023-04-22T08:35:54.209Z,18.19
2023-04-22T08:38:21.108Z,17.48
2023-04-22T08:40:48.023Z,16.27
2023-04-22T08:43:15.133Z,16.57
2023-04-22T08:45:42.340Z,17.67
2023-04-22T08:48:10.562Z,18.28
2023-04-22T09:15:57.810Z,16.82
2023-04-22T09:45:34.173Z,18.48
2023-04-22T09:48:06.860Z,16.52
2023-04-22T09:50:33.870Z,17.88
2023-04-22T09:53:05.976Z,19.69
2023-04-22T09:55:35.712Z,19.47
2023-04-22T09:58:11.391Z,22.61
2023-04-22T10:00:50.181Z,22.58
2023-04-22T10:03:17.943Z,22.86
2023-04-22T10:05:46.156Z,21.55
2023-04-22T10:08:14.804Z,21.10
2023-04-22T10:10:41.869Z,20.84
2023-04-22T10:13:09.671Z,20.63
2023-04-22T10:15:41.554Z,23.33
2023-04-22T10:18:12.907Z,23.13
2023-04-22T10:20:42.634Z,22.80
2023-04-22T10:23:15.970Z,23.45
2023-04-22T10:25:46.905Z,21.41
2023-04-22T10:28:16.657Z,22.03
2023-04-22T10:30:43.544Z,22.87
2023-04-22T10:33:27.839Z,23.89
2023-04-22T10:36:08.354Z,25.37
2023-04-22T10:38:51.541Z,25.63
2023-04-22T10:41:26.882Z,24.91
2023-04-22T10:43:58.900Z,24.70
2023-04-22T10:46:35.540Z,25.80
2023-04-22T10:49:12.906Z,24.65
2023-04-22T10:51:40.786Z,21.82
2023-04-22T10:54:08.163Z,21.75
2023-04-22T10:56:35.409Z,24.17
2023-04-22T10:59:16.918Z,23.53
2023-04-22T11:01:44.774Z,24.33
2023-04-22T11:04:20.947Z,21.79
2023-04-22T11:07:30.016Z,24.46
2023-04-22T11:10:01.117Z,23.58
2023-04-22T11:12:40.078Z,22.81
2023-04-22T11:15:15.852Z,23.08
2023-04-22T11:17:44.817Z,19.94
2023-04-22T11:20:13.179Z,23.30
2023-04-22T11:22:43.089Z,23.93
2023-04-22T11:25:11.333Z,23.86
2023-04-22T11:27:41.519Z,25.73
2023-04-22T11:30:13.122Z,21.99
2023-04-22T11:32:51.241Z,23.78
2023-04-22T11:35:29.451Z,22.53
2023-04-22T11:38:01.627Z,26.49
2023-04-22T11:40:42.090Z,25.28
2023-04-22T11:43:11.540Z,23.92
2023-04-22T11:45:39.620Z,26.46
2023-04-22T11:48:08.627Z,23.08
2023-04-22T11:50:44.887Z,22.02
2023-04-22T11:53:19.505Z,24.16
2023-04-22T11:55:51.117Z,24.34
2023-04-22T11:58:20.614Z,23.89
2023-04-22T12:00:52.447Z,21.44
2023-04-22T12:03:20.551Z,17.88
2023-04-22T12:05:47.402Z,22.23
2023-04-22T12:08:16.503Z,21.04
2023-04-22T12:10:44.457Z,23.23
2023-04-22T12:13:21.732Z,19.99
2023-04-22T12:15:49.096Z,20.88
2023-04-22T12:18:15.954Z,20.46
2023-04-22T12:20:43.626Z,21.63
2023-04-22T12:23:15.469Z,23.47
2023-04-22T12:25:43.762Z,21.77
2023-04-22T12:28:11.939Z,21.91
2023-04-22T12:30:38.783Z,21.14
2023-04-22T12:33:06.782Z,22.45
2023-04-22T12:35:33.812Z,21.93
2023-04-22T12:38:00.817Z,20.88
2023-04-22T12:40:28.035Z,19.59
2023-04-22T12:42:55.000Z,20.63
2023-04-22T12:45:23.041Z,19.83
2023-04-22T12:47:53.817Z,21.28
2023-04-22T12:50:21.017Z,19.90
2023-04-22T12:52:47.779Z,23.19
2023-04-22T12:55:14.490Z,20.70
2023-04-22T12:57:42.095Z,19.31
2023-04-22T13:00:14.426Z,19.81
2023-04-22T13:02:43.625Z,19.03
2023-04-22T13:05:11.570Z,17.48
2023-04-22T13:07:40.141Z,17.60
2023-04-22T13:10:08.535Z,16.91
2023-04-22T13:12:37.293Z,16.60
2023-04-22T13:15:06.492Z,16.19
2023-04-22T13:17:34.242Z,19.72
2023-04-22T13:20:00.989Z,19.56
2023-04-22T13:22:28.433Z,20.67
2023-04-22T13:24:55.406Z,20.08
2023-04-22T13:27:22.419Z,20.90
2023-04-22T13:29:49.121Z,19.30
2023-04-22T13:32:15.931Z,18.02
2023-04-22T13:34:45.864Z,21.23
2023-04-22T13:37:15.074Z,19.11
2023-04-22T13:39:42.839Z,19.68
2023-04-22T13:42:10.474Z,18.30
2023-04-22T13:44:37.606Z,19.16
2023-04-22T13:47:04.362Z,20.36
2023-04-22T13:49:31.159Z,18.80
2023-04-22T13:51:58.751Z,17.28
2023-04-22T13:54:26.141Z,17.83
2023-04-22T13:56:53.615Z,19.34
2023-04-22T13:59:20.537Z,19.48
2023-04-22T14:01:47.268Z,17.67
2023-04-22T14:04:14.909Z,20.55
2023-04-22T14:06:42.176Z,16.99
2023-04-22T14:09:09.923Z,17.77
2023-04-22T14:11:36.722Z,20.85
2023-04-22T14:14:03.557Z,19.07
2023-04-22T14:16:31.739Z,20.79
2023-04-22T14:19:00.098Z,19.94
2023-04-22T14:21:29.612Z,19.50
2023-04-22T14:23:58.333Z,18.41
2023-04-22T14:26:25.067Z,19.81
2023-04-22T14:28:51.902Z,19.53
2023-04-22T14:31:19.804Z,19.53
2023-04-22T14:33:46.668Z,18.57
2023-04-22T14:36:13.377Z,18.19
2023-04-22T14:38:40.096Z,18.28
2023-04-22T14:41:06.981Z,19.95
2023-04-22T14:43:34.195Z,20.07
2023-04-22T14:46:01.190Z,19.96
2023-04-22T14:48:30.898Z,20.28
2023-04-22T14:50:58.558Z,20.67
2023-04-22T14:53:25.876Z,21.20
2023-04-22T14:55:53.295Z,20.28
2023-04-22T14:58:20.052Z,18.38
2023-04-22T15:00:48.412Z,18.10
2023-04-22T15:03:16.044Z,20.20
2023-04-22T15:05:43.704Z,19.37
2023-04-22T15:08:10.513Z,19.12
2023-04-22T15:10:37.340Z,18.76
2023-04-22T15:13:04.016Z,20.30
2023-04-22T15:15:30.912Z,18.83
2023-04-22T15:17:57.984Z,18.54
2023-04-22T15:20:25.327Z,19.32
2023-04-22T15:22:52.272Z,19.07
2023-04-22T15:25:19.071Z,20.98
2023-04-22T15:27:46.400Z,19.34
2023-04-22T15:30:13.831Z,18.57
2023-04-22T15:32:40.733Z,18.88
2023-04-22T15:35:08.509Z,17.42
2023-04-22T15:37:35.317Z,16.58
2023-04-22T15:40:02.120Z,17.37
2023-04-22T15:42:29.024Z,17.71
2023-04-22T15:44:55.796Z,19.67
2023-04-22T15:47:22.691Z,17.57
2023-04-22T15:49:49.711Z,17.17
2023-04-22T15:52:18.283Z,18.02
2023-04-22T15:54:46.011Z,17.48
2023-04-22T15:57:13.033Z,18.08
2023-04-22T15:59:40.024Z,18.55
2023-04-22T16:02:08.909Z,17.63
2023-04-22T16:04:36.347Z,15.55
2023-04-22T16:07:03.392Z,15.82
2023-04-22T16:09:31.143Z,14.38
2023-04-22T16:11:58.089Z,16.73
2023-04-22T16:14:24.837Z,14.81
2023-04-22T16:16:52.516Z,15.09
2023-04-22T16:19:19.683Z,15.63
2023-04-22T16:21:46.748Z,15.19
2023-04-22T16:24:14.640Z,14.93
2023-04-22T16:26:43.120Z,14.71
2023-04-22T16:29:09.855Z,14.78
2023-04-22T16:31:38.953Z,15.07
2023-04-22T16:34:05.870Z,15.26
2023-04-22T16:36:32.751Z,14.37
2023-04-22T16:38:59.609Z,14.27
2023-04-22T16:41:26.372Z,14.73
2023-04-22T16:43:53.212Z,14.84
2023-04-22T16:46:20.024Z,15.17
2023-04-22T16:48:46.995Z,14.84
2023-04-22T16:51:14.009Z,16.07
2023-04-22T16:53:41.266Z,16.17
2023-04-22T16:56:08.181Z,15.74
2023-04-22T16:58:34.913Z,15.34
2023-04-22T17:01:02.078Z,14.60
2023-04-22T17:03:30.141Z,14.59
2023-04-22T17:05:57.369Z,14.14
2023-04-22T17:08:24.507Z,13.43
2023-04-22T17:10:52.419Z,14.34
2023-04-22T17:13:19.155Z,14.94
2023-04-22T17:15:47.154Z,14.61
2023-04-22T17:18:15.086Z,14.23
2023-04-22T17:20:43.126Z,13.88
2023-04-22T17:23:10.115Z,14.01
2023-04-22T17:25:37.257Z,12.85
2023-04-22T17:28:04.483Z,12.59
2023-04-22T17:30:32.314Z,12.53
2023-04-22T17:32:59.441Z,12.63
2023-04-22T17:35:26.705Z,12.39
2023-04-22T17:37:53.914Z,12.28
2023-04-22T17:40:22.097Z,11.84
2023-04-22T17:42:48.861Z,11.22
2023-04-22T17:45:16.375Z,11.25
2023-04-22T17:47:43.369Z,11.43
2023-04-22T17:50:10.638Z,11.46
2023-04-22T17:52:37.445Z,11.29
2023-04-22T17:55:04.632Z,10.83
2023-04-22T17:57:31.883Z,10.39
2023-04-22T17:59:58.645Z,10.53
2023-04-22T18:02:25.648Z,10.76
2023-04-22T18:04:52.686Z,10.84
2023-04-22T18:07:19.436Z,9.93
2023-04-22T18:09:46.787Z,10.36
2023-04-22T18:12:13.590Z,10.37
2023-04-22T18:14:40.436Z,10.10
2023-04-22T18:17:07.393Z,10.56
2023-04-22T18:19:34.146Z,10.58
2023-04-22T18:22:01.777Z,10.03
2023-04-22T18:24:28.776Z,10.65
2023-04-22T18:26:55.626Z,10.24
2023-04-22T18:29:22.358Z,10.10
2023-04-22T18:31:49.148Z,9.99
2023-04-22T18:34:16.123Z,9.71
2023-04-22T18:36:42.929Z,9.05
2023-04-22T18:39:10.043Z,8.54
2023-04-22T18:41:38.674Z,8.86
2023-04-22T18:44:06.360Z,9.67
2023-04-22T18:46:34.872Z,9.84
2023-04-22T18:49:04.619Z,9.39
2023-04-22T18:51:33.955Z,8.04
2023-04-22T18:54:04.740Z,8.88
2023-04-22T18:56:34.060Z,9.40
2023-04-22T18:59:01.625Z,9.70
2023-04-22T19:01:33.006Z,9.23
2023-04-22T19:04:05.009Z,9.74
2023-04-22T19:06:33.440Z,10.29
2023-04-22T19:09:01.342Z,9.41
2023-04-22T19:11:29.250Z,10.05
2023-04-22T19:13:57.613Z,7.78
2023-04-22T19:16:26.337Z,7.77
2023-04-22T19:18:53.369Z,9.00
2023-04-22T19:21:20.331Z,9.08
2023-04-22T19:23:47.355Z,9.35
2023-04-22T19:26:14.490Z,8.82
2023-04-22T19:28:47.390Z,9.61
2023-04-22T19:31:15.607Z,8.98
2023-04-22T19:33:43.769Z,6.74
2023-04-22T19:36:11.008Z,8.08
2023-04-22T19:38:37.791Z,8.22
2023-04-22T19:41:04.510Z,6.24
2023-04-22T19:43:32.914Z,6.12
2023-04-22T19:45:59.676Z,5.70
2023-04-22T19:48:26.807Z,5.69
2023-04-22T19:50:53.654Z,7.27
2023-04-22T19:53:23.186Z,7.47
2023-04-22T19:55:50.394Z,7.86
2023-04-22T19:58:18.061Z,8.31
2023-04-22T20:00:45.674Z,7.11
2023-04-22T20:03:14.508Z,6.43
2023-04-22T20:05:43.753Z,6.97
2023-04-22T20:08:12.056Z,6.91
2023-04-22T20:10:38.923Z,7.72
2023-04-22T20:13:06.243Z,6.60
2023-04-22T20:15:33.903Z,5.15
2023-04-22T20:18:01.846Z,6.31
2023-04-22T20:20:29.024Z,6.51
2023-04-22T20:23:00.015Z,6.76
2023-04-22T20:25:28.782Z,6.95
2023-04-22T20:27:56.731Z,6.97
2023-04-22T20:30:23.546Z,8.17
2023-04-22T20:32:50.373Z,7.99
2023-04-22T20:35:17.544Z,7.57
2023-04-22T20:37:47.284Z,8.96
2023-04-22T20:40:15.278Z,7.92
2023-04-22T20:42:42.215Z,8.29
2023-04-22T20:45:14.991Z,7.63
2023-04-22T20:47:42.504Z,8.08
2023-04-22T20:50:09.726Z,8.29
2023-04-22T20:52:36.637Z,7.90
2023-04-22T20:55:06.736Z,8.58
2023-04-22T20:57:34.337Z,7.72
2023-04-22T21:00:01.463Z,7.57
2023-04-22T21:02:29.341Z,8.92
2023-04-22T21:04:57.626Z,7.91
2023-04-22T21:07:26.501Z,8.07
2023-04-22T21:09:53.445Z,7.95
2023-04-22T21:12:20.472Z,7.77
2023-04-22T21:14:48.246Z,7.83
2023-04-22T21:17:21.472Z,8.38
2023-04-22T21:19:50.579Z,7.32
2023-04-22T21:22:23.454Z,7.77
2023-04-22T21:24:51.453Z,8.09
2023-04-22T21:27:19.701Z,6.85
2023-04-22T21:29:47.753Z,7.28
2023-04-22T21:32:14.888Z,7.35
2023-04-22T21:34:41.959Z,7.23
2023-04-22T21:37:09.369Z,7.44
2023-04-22T21:39:36.599Z,7.58
2023-04-22T21:42:08.148Z,6.27
2023-04-22T21:44:37.350Z,7.34
2023-04-22T21:47:05.079Z,6.63
2023-04-22T21:49:32.445Z,7.32
2023-04-22T21:51:59.735Z,6.23
2023-04-22T21:54:26.609Z,6.43
2023-04-22T21:56:53.451Z,6.91
2023-04-22T21:59:20.395Z,5.99
2023-04-22T22:01:47.179Z,6.30
2023-04-22T22:04:16.217Z,7.01
2023-04-22T22:06:44.930Z,6.42
2023-04-22T22:09:12.582Z,6.89
2023-04-22T22:11:39.321Z,7.44
2023-04-22T22:14:06.088Z,6.33
2023-04-22T22:16:38.314Z,6.82
2023-04-22T22:19:05.586Z,6.52
2023-04-22T22:21:33.420Z,6.81
2023-04-22T22:24:00.130Z,6.18
2023-04-22T22:26:27.963Z,7.20
2023-04-22T22:28:55.084Z,6.80
2023-04-22T22:31:21.872Z,6.47
2023-04-22T22:33:49.290Z,6.47
2023-04-22T22:36:16.338Z,7.15
2023-04-22T22:38:43.387Z,5.87
2023-04-22T22:41:10.105Z,7.25
2023-04-22T22:43:36.890Z,5.48
2023-04-22T22:46:03.715Z,7.02
2023-04-22T22:48:30.571Z,6.50
2023-04-22T22:50:57.350Z,4.97
2023-04-22T22:53:24.025Z,6.08
2023-04-22T22:55:50.919Z,6.64
2023-04-22T22:58:17.725Z,6.74
2023-04-22T23:00:45.153Z,7.13
2023-04-22T23:03:12.754Z,7.58
2023-04-22T23:05:39.597Z,6.18
2023-04-22T23:08:06.943Z,5.89
2023-04-22T23:10:33.698Z,7.06
2023-04-22T23:13:00.603Z,6.04
2023-04-22T23:15:27.379Z,6.37
2023-04-22T23:17:54.200Z,6.31
2023-04-22T23:20:22.170Z,5.73
2023-04-22T23:22:51.477Z,6.52
2023-04-22T23:25:18.999Z,5.83
2023-04-22T23:27:46.166Z,6.21
2023-04-22T23:30:13.694Z,6.87
2023-04-22T23:32:42.490Z,6.60
2023-04-22T23:35:11.891Z,7.72
2023-04-22T23:37:44.894Z,7.08
2023-04-22T23:40:12.483Z,7.13
2023-04-22T23:42:39.354Z,7.13
2023-04-22T23:45:07.332Z,7.20
2023-04-22T23:47:34.130Z,6.52
2023-04-22T23:50:00.815Z,6.64
2023-04-22T23:52:27.555Z,5.69
2023-04-22T23:54:55.198Z,5.93
2023-04-22T23:57:22.182Z,6.89
2023-04-22T23:59:49.178Z,7.65
